Time;durP1;ratioP1;P1;durP2;ratioP2;P2;SDS_P1;SDS_P2;PMS_P1;PMS_P2;Temp;Humidity;BMP_temperature;BMP_pressure;BME280_temperature;BME280_humidity;BME280_pressure;Samples;Min_cycle;Max_cycle;Signal;HPM_P1;HPM_P2
2023/09/06 00:01:25;;;;;;;6.93;5.38;;;25.50;90.30;;;;;;5041901;28;20047;-71
2023/09/06 00:03:51;;;;;;;6.60;5.30;;;25.60;90.60;;;;;;5040963;28;20508;-63
2023/09/06 00:06:16;;;;;;;7.15;5.25;;;25.40;90.30;;;;;;5047014;28;20044;-61
2023/09/06 00:08:42;;;;;;;7.07;5.18;;;25.40;90.30;;;;;;5048717;28;20128;-63
2023/09/06 00:11:09;;;;;;;7.15;5.43;;;25.30;90.30;;;;;;5040706;28;20398;-73
2023/09/06 00:13:35;;;;;;;7.47;5.97;;;25.50;90.40;;;;;;5064938;28;20053;-72
2023/09/06 00:16:02;;;;;;;6.63;5.47;;;25.20;90.40;;;;;;5060595;28;20088;-73
2023/09/06 00:18:27;;;;;;;7.65;5.78;;;25.30;91.80;;;;;;5065450;28;20040;-73
2023/09/06 00:20:53;;;;;;;7.10;5.78;;;25.40;90.30;;;;;;5074243;28;20049;-71
2023/09/06 00:23:20;;;;;;;8.98;5.82;;;25.20;90.30;;;;;;5058926;28;20111;-71
2023/09/06 00:25:46;;;;;;;8.23;5.72;;;25.10;90.50;;;;;;5069712;28;20044;-70
2023/09/06 00:28:13;;;;;;;8.05;5.88;;;25.60;90.50;;;;;;5061029;28;20033;-73
2023/09/06 00:30:39;;;;;;;7.45;6.10;;;25.10;90.30;;;;;;5060548;28;20087;-72
2023/09/06 00:33:08;;;;;;;6.55;5.22;;;25.40;90.30;;;;;;5062555;28;20040;-73
2023/09/06 00:35:34;;;;;;;6.28;5.13;;;25.80;90.50;;;;;;5074533;28;20086;-63
2023/09/06 00:38:06;;;;;;;9.07;6.72;;;25.20;90.30;;;;;;5077552;28;20087;-63
2023/09/06 00:40:36;;;;;;;7.18;5.68;;;25.30;89.80;;;;;;5061502;28;20044;-64
2023/09/06 00:43:02;;;;;;;9.07;5.70;;;25.20;90.40;;;;;;5061043;28;20040;-63
2023/09/06 00:45:42;;;;;;;6.65;5.53;;;25.10;90.20;;;;;;5068585;28;20044;-64
2023/09/06 00:48:08;;;;;;;7.18;5.65;;;24.90;89.50;;;;;;5078628;28;20044;-64
2023/09/06 00:50:34;;;;;;;7.03;5.93;;;25.30;90.40;;;;;;5074555;28;20029;-64
2023/09/06 00:53:00;;;;;;;9.35;5.88;;;25.00;90.20;;;;;;5078609;28;20523;-62
2023/09/06 00:55:26;;;;;;;7.82;5.30;;;25.00;91.60;;;;;;5075181;28;20128;-64
2023/09/06 00:57:51;;;;;;;6.28;5.35;;;25.30;90.30;;;;;;5060891;28;20036;-63
2023/09/06 01:00:19;;;;;;;6.88;5.15;;;24.90;90.20;;;;;;5074112;28;20040;-64
2023/09/06 01:02:46;;;;;;;6.55;4.90;;;25.20;90.30;;;;;;5076030;28;20148;-64
2023/09/06 01:05:13;;;;;;;5.93;4.60;;;25.30;90.40;;;;;;5078401;28;20628;-63
2023/09/06 01:07:39;;;;;;;7.35;5.13;;;25.00;90.20;;;;;;5068825;28;20049;-63
2023/09/06 01:10:05;;;;;;;7.07;4.95;;;24.90;90.10;;;;;;5053405;28;20041;-65
2023/09/06 01:12:34;;;;;;;6.63;4.57;;;25.00;90.20;;;;;;5054250;28;20131;-63
2023/09/06 01:15:03;;;;;;;6.60;4.93;;;24.70;90.10;;;;;;5054315;28;20140;-73
2023/09/06 01:17:29;;;;;;;6.55;4.82;;;24.90;90.30;;;;;;5056385;28;20387;-69
2023/09/06 01:20:05;;;;;;;6.22;5.20;;;25.10;90.20;;;;;;5056186;28;20043;-71
2023/09/06 01:22:40;;;;;;;6.82;4.80;;;25.00;90.30;;;;;;5070536;28;20043;-72
2023/09/06 01:25:08;;;;;;;5.80;4.70;;;25.10;90.50;;;;;;5074733;28;20101;-71
2023/09/06 01:27:34;;;;;;;6.65;4.82;;;;;;;;;;5073501;28;20075;-72
2023/09/06 01:30:00;;;;;;;6.85;4.68;;;25.10;88.60;;;;;;5073217;28;20060;-72
2023/09/06 01:32:26;;;;;;;5.60;4.43;;;25.10;90.10;;;;;;5040006;28;20041;-72
2023/09/06 01:34:55;;;;;;;6.18;4.95;;;25.00;90.20;;;;;;5062342;28;20398;-72
2023/09/06 01:37:21;;;;;;;7.55;4.88;;;25.20;90.30;;;;;;5055817;28;20093;-71
2023/09/06 01:39:47;;;;;;;5.93;4.47;;;25.10;90.20;;;;;;5069430;28;20048;-72
2023/09/06 01:42:13;;;;;;;5.78;4.18;;;25.20;90.10;;;;;;5068948;28;20107;-63
2023/09/06 01:44:39;;;;;;;6.47;4.75;;;25.10;91.70;;;;;;5054724;28;20041;-64
2023/09/06 01:47:05;;;;;;;5.80;4.32;;;24.90;90.00;;;;;;5054642;28;20120;-71
2023/09/06 01:49:31;;;;;;;6.47;4.45;;;24.80;89.90;;;;;;5061694;28;20893;-63
2023/09/06 01:51:57;;;;;;;6.10;4.20;;;25.10;90.00;;;;;;5070930;28;20219;-63
2023/09/06 01:54:24;;;;;;;5.40;4.13;;;24.90;90.10;;;;;;5068496;28;20059;-62
2023/09/06 01:56:49;;;;;;;5.80;4.38;;;24.90;90.00;;;;;;5073608;28;20040;-64
2023/09/06 01:59:15;;;;;;;6.57;4.03;;;25.00;91.60;;;;;;5070793;28;20135;-64
2023/09/06 02:01:41;;;;;;;5.18;3.90;;;25.00;90.00;;;;;;5073662;28;20052;-63
2023/09/06 02:04:07;;;;;;;6.35;4.35;;;25.30;90.10;;;;;;5071555;28;20100;-65
2023/09/06 02:06:32;;;;;;;6.13;4.05;;;24.90;90.00;;;;;;5071882;28;20037;-64
2023/09/06 02:08:58;;;;;;;5.95;4.13;;;25.20;90.10;;;;;;5071697;28;20167;-64
2023/09/06 02:11:24;;;;;;;7.28;4.57;;;25.30;90.10;;;;;;5062195;28;20039;-72
2023/09/06 02:13:50;;;;;;;6.68;4.50;;;25.00;90.00;;;;;;5066086;28;20049;-72
2023/09/06 02:16:17;;;;;;;5.90;4.10;;;25.10;89.80;;;;;;5063539;28;20485;-63
2023/09/06 02:18:43;;;;;;;5.43;4.25;;;25.50;90.10;;;;;;5052946;28;20047;-72
2023/09/06 02:21:09;;;;;;;6.45;4.40;;;25.20;90.00;;;;;;5062274;28;20040;-73
2023/09/06 02:23:36;;;;;;;5.97;4.00;;;25.10;90.20;;;;;;5071125;28;20140;-72
2023/09/06 02:26:03;;;;;;;6.20;4.20;;;25.30;90.10;;;;;;5064045;28;20040;-73
2023/09/06 02:28:29;;;;;;;6.13;4.28;;;25.20;90.20;;;;;;5063289;28;20417;-64
2023/09/06 02:30:54;;;;;;;5.63;4.10;;;25.00;90.00;;;;;;5073882;28;20066;-64
2023/09/06 02:33:20;;;;;;;5.47;3.88;;;25.10;90.00;;;;;;5067306;28;20102;-64
2023/09/06 02:35:47;;;;;;;6.63;3.83;;;25.00;90.00;;;;;;5059105;28;20045;-64
2023/09/06 02:38:13;;;;;;;7.95;4.50;;;24.80;90.00;;;;;;5073544;28;20041;-64
2023/09/06 02:40:42;;;;;;;5.15;3.90;;;25.00;90.00;;;;;;5066633;28;20622;-63
2023/09/06 02:43:10;;;;;;;6.10;3.90;;;25.00;89.30;;;;;;5070119;28;20124;-64
2023/09/06 02:45:37;;;;;;;5.63;4.28;;;25.00;91.40;;;;;;5053747;28;20071;-64
2023/09/06 02:48:15;;;;;;;6.00;4.05;;;24.90;90.00;;;;;;5060864;28;20049;-64
2023/09/06 02:50:41;;;;;;;6.05;4.32;;;25.10;89.40;;;;;;5069612;28;20041;-65
2023/09/06 02:53:19;;;;;;;7.03;3.90;;;24.90;89.80;;;;;;5038763;28;20098;-63
2023/09/06 02:55:47;;;;;;;6.88;3.75;;;25.10;90.00;;;;;;5054498;28;20095;-65
2023/09/06 02:58:15;;;;;;;5.70;4.00;;;24.90;90.00;;;;;;5058131;28;20048;-65
2023/09/06 03:00:43;;;;;;;5.60;4.35;;;25.00;90.00;;;;;;5071240;28;20444;-65
2023/09/06 03:03:10;;;;;;;6.30;4.03;;;25.10;90.10;;;;;;5072679;28;20064;-66
2023/09/06 03:05:41;;;;;;;5.40;3.80;;;24.90;89.90;;;;;;5071779;28;20044;-66
2023/09/06 03:08:07;;;;;;;5.28;3.80;;;24.70;90.00;;;;;;5069371;28;20053;-61
2023/09/06 03:10:34;;;;;;;6.38;4.10;;;25.00;90.00;;;;;;5053087;28;20049;-62
2023/09/06 03:13:00;;;;;;;5.82;4.00;;;25.10;90.00;;;;;;5035307;28;20149;-63
2023/09/06 03:15:29;;;;;;;5.50;3.92;;;25.00;89.70;;;;;;5063393;28;20052;-70
2023/09/06 03:17:58;;;;;;;5.55;4.25;;;24.90;89.10;;;;;;5068354;28;20056;-67
2023/09/06 03:23:17;;;;;;;7.43;4.30;;;25.00;89.90;;;;;;5043586;28;20315;-72
2023/09/06 03:25:50;;;;;;;5.50;4.05;;;25.40;90.10;;;;;;5052660;28;20053;-72
2023/09/06 03:28:18;;;;;;;4.95;3.90;;;25.10;90.20;;;;;;5065151;28;20454;-72
2023/09/06 03:30:44;;;;;;;5.63;3.88;;;24.90;90.00;;;;;;5071834;28;20037;-71
2023/09/06 03:33:13;;;;;;;6.30;4.10;;;24.30;89.70;;;;;;5054565;28;20094;-70
2023/09/06 03:35:41;;;;;;;5.30;4.00;;;24.80;90.00;;;;;;5049420;28;20131;-68
2023/09/06 03:38:10;;;;;;;5.70;4.10;;;24.90;89.80;;;;;;5066042;28;20189;-73
2023/09/06 03:40:36;;;;;;;5.85;4.47;;;24.90;90.00;;;;;;5064063;28;20060;-72
2023/09/06 03:43:29;;;;;;;6.05;3.92;;;24.90;90.10;;;;;;5054610;28;20123;-72
2023/09/06 03:45:58;;;;;;;6.40;4.30;;;24.40;88.50;;;;;;5064966;28;20045;-72
2023/09/06 03:48:26;;;;;;;5.93;4.25;;;24.90;90.40;;;;;;5032160;28;20137;-73
2023/09/06 03:50:57;;;;;;;6.80;3.97;;;25.10;90.50;;;;;;5023845;28;20084;-72
2023/09/06 03:53:25;;;;;;;6.05;3.90;;;24.80;90.30;;;;;;5050636;28;20051;-73
2023/09/06 03:55:52;;;;;;;5.00;3.60;;;25.00;90.00;;;;;;5064904;28;20055;-62
2023/09/06 03:58:18;;;;;;;5.38;3.55;;;24.90;90.00;;;;;;5060666;28;20448;-62
2023/09/06 04:00:44;;;;;;;5.75;3.97;;;25.00;89.90;;;;;;5052578;28;20052;-63
2023/09/06 04:03:14;;;;;;;5.18;3.85;;;24.70;89.80;;;;;;5017996;28;20045;-63
2023/09/06 04:05:40;;;;;;;5.78;3.70;;;24.70;90.00;;;;;;5051493;28;20055;-63
2023/09/06 04:08:09;;;;;;;5.65;3.75;;;24.70;89.80;;;;;;5039867;28;20422;-63
2023/09/06 04:10:38;;;;;;;5.30;3.65;;;25.00;89.00;;;;;;5051849;28;20037;-72
2023/09/06 04:13:09;;;;;;;5.53;4.10;;;24.80;91.30;;;;;;5050972;28;20143;-71
2023/09/06 04:15:35;;;;;;;5.28;3.70;;;24.90;90.00;;;;;;5067021;28;21089;-73
2023/09/06 04:18:03;;;;;;;4.95;3.30;;;25.00;90.00;;;;;;5044808;28;20119;-62
2023/09/06 04:20:35;;;;;;;5.47;3.67;;;24.90;90.00;;;;;;5051070;28;20584;-62
2023/09/06 04:23:01;;;;;;;6.00;3.60;;;24.60;89.90;;;;;;5051243;28;20041;-62
2023/09/06 04:25:27;;;;;;;5.20;3.58;;;24.60;89.90;;;;;;5034491;28;20052;-62
2023/09/06 04:27:56;;;;;;;5.78;3.58;;;24.50;89.60;;;;;;5023063;28;20132;-64
2023/09/06 04:30:24;;;;;;;5.00;3.38;;;24.80;91.30;;;;;;5053307;28;20056;-62
2023/09/06 04:32:50;;;;;;;4.85;3.40;;;24.60;91.00;;;;;;5034666;28;20060;-62
2023/09/06 04:35:16;;;;;;;6.45;3.50;;;24.70;90.00;;;;;;5050925;28;20044;-62
2023/09/06 04:37:42;;;;;;;6.07;3.92;;;24.70;89.80;;;;;;5067581;28;20037;-72
2023/09/06 04:40:14;;;;;;;6.80;3.53;;;24.60;89.80;;;;;;5061837;28;20037;-72
2023/09/06 04:42:40;;;;;;;6.07;3.75;;;24.70;89.90;;;;;;5038792;28;20088;-71
2023/09/06 04:45:10;;;;;;;5.35;3.47;;;24.60;89.80;;;;;;5050874;28;20080;-73
2023/09/06 04:47:37;;;;;;;5.22;3.47;;;24.70;89.90;;;;;;5054290;28;20088;-71
2023/09/06 04:50:04;;;;;;;5.03;3.53;;;24.60;89.90;;;;;;5066093;28;20036;-63
2023/09/06 04:52:30;;;;;;;5.20;3.47;;;24.60;89.50;;;;;;5073867;28;20064;-65
2023/09/06 04:54:56;;;;;;;5.35;3.17;;;24.60;89.40;;;;;;5074182;28;20048;-63
2023/09/06 04:57:22;;;;;;;5.30;3.45;;;24.70;89.90;;;;;;5063886;28;20037;-63
2023/09/06 04:59:48;;;;;;;6.03;3.60;;;24.80;89.70;;;;;;5061685;28;20405;-63
2023/09/06 05:02:15;;;;;;;5.18;3.58;;;24.60;91.20;;;;;;5055259;28;20052;-64
2023/09/06 05:04:43;;;;;;;6.63;3.28;;;24.80;89.60;;;;;;5055202;28;20053;-63
2023/09/06 05:07:10;;;;;;;4.88;3.38;;;24.60;89.60;;;;;;5054600;28;20502;-63
2023/09/06 05:09:36;;;;;;;5.78;3.67;;;24.80;89.90;;;;;;5066411;28;20052;-63
2023/09/06 05:12:03;;;;;;;5.43;3.60;;;24.60;91.20;;;;;;5071848;28;20060;-63
2023/09/06 05:14:29;;;;;;;4.85;3.45;;;24.70;89.50;;;;;;5074973;28;20057;-65
2023/09/06 05:16:55;;;;;;;8.43;3.40;;;24.90;89.40;;;;;;5068383;28;20053;-63
2023/09/06 05:19:27;;;;;;;6.43;3.45;;;24.50;89.30;;;;;;5072105;28;20064;-72
2023/09/06 05:21:54;;;;;;;6.60;3.60;;;24.80;89.40;;;;;;5060116;28;20053;-64
2023/09/06 05:24:20;;;;;;;6.70;4.38;;;24.90;89.60;;;;;;5074993;28;20405;-65
2023/09/06 05:26:46;;;;;;;5.25;3.30;;;24.80;89.20;;;;;;5075363;28;20040;-64
2023/09/06 05:29:14;;;;;;;4.60;3.03;;;24.80;89.10;;;;;;5059775;28;20482;-63
2023/09/06 05:31:40;;;;;;;4.90;3.22;;;24.80;89.20;;;;;;5054929;28;20056;-65
2023/09/06 05:34:06;;;;;;;4.63;3.15;;;24.90;89.00;;;;;;5068984;28;20036;-63
2023/09/06 05:36:32;;;;;;;4.75;3.10;;;24.90;88.90;;;;;;5070683;28;20489;-64
2023/09/06 05:38:57;;;;;;;5.60;3.28;;;25.30;89.10;;;;;;5054702;28;20033;-64
2023/09/06 05:41:23;;;;;;;4.72;2.88;;;25.00;88.80;;;;;;5045233;28;20136;-64
2023/09/06 05:43:49;;;;;;;6.57;3.42;;;25.00;88.60;;;;;;5072663;28;20052;-63
2023/09/06 05:46:15;;;;;;;5.00;2.97;;;25.30;88.60;;;;;;5072826;28;20497;-64
2023/09/06 05:48:41;;;;;;;6.60;3.53;;;25.50;88.30;;;;;;5037561;28;20397;-63
2023/09/06 05:51:06;;;;;;;5.72;3.40;;;25.50;88.00;;;;;;5038304;28;20475;-64
2023/09/06 05:53:32;;;;;;;4.80;3.40;;;25.50;87.70;;;;;;5019961;28;20060;-64
2023/09/06 05:55:58;;;;;;;5.45;3.53;;;25.50;87.70;;;;;;5053808;28;20049;-64
2023/09/06 05:58:24;;;;;;;5.57;3.25;;;25.60;87.50;;;;;;5036588;28;20103;-63
2023/09/06 06:00:54;;;;;;;7.82;3.30;;;25.80;87.40;;;;;;5040178;28;20044;-64
2023/09/06 06:03:20;;;;;;;5.50;3.08;;;25.70;87.50;;;;;;5017686;28;20049;-62
2023/09/06 06:05:46;;;;;;;4.40;2.75;;;25.80;87.10;;;;;;5053298;28;20128;-62
2023/09/06 06:08:11;;;;;;;5.50;3.22;;;25.70;87.50;;;;;;5045017;28;20409;-61
2023/09/06 06:10:38;;;;;;;7.18;3.30;;;26.00;86.60;;;;;;5071433;28;20057;-77
2023/09/06 06:13:04;;;;;;;6.32;4.15;;;25.80;87.00;;;;;;5053850;28;20139;-79
2023/09/06 06:15:32;;;;;;;6.38;3.50;;;26.00;87.20;;;;;;5036122;28;20055;-79
2023/09/06 06:18:00;;;;;;;8.05;5.10;;;26.00;87.10;;;;;;5036948;28;20469;-78
2023/09/06 06:20:26;;;;;;;7.00;5.30;;;26.10;86.60;;;;;;5042894;28;20076;-78
2023/09/06 06:22:52;;;;;;;8.30;5.05;;;25.90;85.80;;;;;;5047839;28;20109;-79
2023/09/06 06:25:18;;;;;;;7.95;5.47;;;26.00;86.30;;;;;;5028881;28;20037;-66
2023/09/06 06:27:44;;;;;;;11.18;5.68;;;26.60;86.30;;;;;;5037328;28;20047;-79
2023/09/06 06:30:11;;;;;;;7.65;5.50;;;26.00;86.60;;;;;;5053317;28;20039;-77
2023/09/06 06:32:38;;;;;;;9.02;5.13;;;25.80;88.70;;;;;;5055124;28;20040;-77
2023/09/06 06:35:08;;;;;;;8.18;5.40;;;27.10;86.50;;;;;;5072129;28;20051;-79
2023/09/06 06:37:34;;;;;;;7.78;5.28;;;25.90;85.30;;;;;;5070702;28;20102;-79
2023/09/06 06:40:00;;;;;;;8.13;5.50;;;25.60;85.70;;;;;;5073399;28;20076;-78
2023/09/06 06:42:27;;;;;;;6.93;5.22;;;25.90;86.20;;;;;;5052961;28;20037;-63
2023/09/06 06:44:53;;;;;;;8.15;5.95;;;25.70;85.80;;;;;;5019480;28;20099;-64
2023/09/06 06:47:19;;;;;;;7.65;5.60;;;25.70;88.60;;;;;;5034872;28;20088;-79
2023/09/06 06:49:44;;;;;;;9.63;4.90;;;25.80;86.00;;;;;;5053419;28;20084;-65
2023/09/06 06:52:11;;;;;;;7.60;4.72;;;25.80;85.80;;;;;;5054456;28;20474;-63
2023/09/06 06:54:39;;;;;;;7.95;4.38;;;25.90;85.90;;;;;;5041398;28;20455;-64
2023/09/06 06:57:05;;;;;;;6.07;4.07;;;25.80;85.80;;;;;;5071470;28;20041;-64
2023/09/06 06:59:31;;;;;;;6.30;3.78;;;26.20;85.70;;;;;;5057912;28;20386;-65
2023/09/06 07:01:57;;;;;;;6.55;3.30;;;26.00;85.50;;;;;;5055882;28;20041;-61
2023/09/06 07:04:44;;;;;;;5.60;3.70;;;26.20;85.30;;;;;;5052774;28;20124;-61
2023/09/06 07:07:10;;;;;;;7.68;4.25;;;26.40;84.00;;;;;;5052477;28;20052;-62
2023/09/06 07:09:39;;;;;;;5.70;4.10;;;26.60;85.10;;;;;;5056529;28;20048;-60
2023/09/06 07:12:07;;;;;;;7.10;4.05;;;26.50;83.40;;;;;;5058251;28;20075;-76
2023/09/06 07:14:33;;;;;;;8.13;4.80;;;26.70;84.60;;;;;;5059052;28;20474;-78
2023/09/06 07:16:59;;;;;;;7.60;3.88;;;26.60;84.30;;;;;;5065775;28;20044;-79
2023/09/06 07:19:24;;;;;;;5.72;3.50;;;26.70;84.30;;;;;;5071649;28;20071;-75
2023/09/06 07:21:50;;;;;;;5.28;3.60;;;27.00;84.60;;;;;;5069287;28;20066;-78
2023/09/06 07:24:16;;;;;;;6.72;4.20;;;26.70;84.80;;;;;;5070950;28;20041;-78
2023/09/06 07:26:45;;;;;;;7.40;4.18;;;27.00;84.20;;;;;;5057344;28;20045;-79
2023/09/06 07:29:11;;;;;;;6.82;3.78;;;27.00;84.60;;;;;;5062628;28;20044;-79
2023/09/06 07:31:40;;;;;;;7.40;3.70;;;27.00;83.90;;;;;;5061312;28;20158;-69
2023/09/06 07:34:07;;;;;;;6.55;3.40;;;27.10;83.80;;;;;;5068988;28;20412;-74
2023/09/06 07:36:33;;;;;;;5.95;3.25;;;27.10;83.70;;;;;;5061815;28;20059;-76
2023/09/06 07:38:58;;;;;;;5.70;3.33;;;27.20;83.60;;;;;;5071039;28;20048;-66
2023/09/06 07:41:27;;;;;;;5.10;3.65;;;27.70;83.90;;;;;;5057344;28;20033;-61
2023/09/06 07:43:55;;;;;;;8.45;4.10;;;27.30;82.10;;;;;;5066293;28;20390;-70
2023/09/06 07:46:27;;;;;;;6.33;3.57;;;27.50;83.10;;;;;;5060529;28;20041;-68
2023/09/06 07:48:54;;;;;;;10.25;4.20;;;27.40;83.00;;;;;;5068987;28;20052;-71
2023/09/06 07:51:21;;;;;;;9.30;4.38;;;27.80;83.40;;;;;;5053213;28;20702;-65
2023/09/06 07:53:46;;;;;;;8.15;4.38;;;26.10;81.40;;;;;;5054409;28;20047;-74
2023/09/06 07:56:13;;;;;;;7.13;4.53;;;27.70;83.40;;;;;;5062093;28;20041;-66
2023/09/06 07:58:42;;;;;;;7.40;3.80;;;28.00;82.20;;;;;;5061155;28;20045;-72
2023/09/06 08:01:08;;;;;;;9.38;4.20;;;26.40;81.70;;;;;;5052666;28;20430;-70
2023/09/06 08:03:34;;;;;;;7.63;3.90;;;28.10;82.60;;;;;;5052010;28;20047;-73
2023/09/06 08:06:00;;;;;;;11.32;4.40;;;28.10;83.20;;;;;;5069683;28;20119;-62
2023/09/06 08:08:26;;;;;;;8.27;3.53;;;27.90;82.20;;;;;;5052592;28;20041;-61
2023/09/06 08:10:51;;;;;;;6.25;4.00;;;28.00;82.20;;;;;;5052088;28;20136;-62
2023/09/06 08:13:18;;;;;;;7.20;4.60;;;28.10;82.00;;;;;;5051571;28;20124;-79
2023/09/06 08:15:44;;;;;;;6.60;4.30;;;28.20;82.10;;;;;;5052477;28;20055;-80
2023/09/06 08:18:10;;;;;;;6.45;4.00;;;27.90;81.80;;;;;;5052049;28;20490;-79
2023/09/06 08:20:39;;;;;;;8.27;4.30;;;28.30;81.70;;;;;;5076250;28;20052;-79
2023/09/06 08:23:05;;;;;;;7.22;4.25;;;28.30;81.90;;;;;;5072198;28;20063;-79
2023/09/06 08:25:33;;;;;;;8.40;3.58;;;27.20;80.90;;;;;;5068390;28;20127;-80
2023/09/06 08:28:02;;;;;;;9.77;4.20;;;28.20;81.70;;;;;;5074849;28;20106;-79
2023/09/06 08:30:28;;;;;;;10.30;3.92;;;27.80;81.50;;;;;;5075439;28;20135;-62
2023/09/06 08:32:53;;;;;;;8.48;3.60;;;28.30;81.30;;;;;;5076074;28;20119;-61
2023/09/06 08:35:20;;;;;;;6.18;3.92;;;28.40;81.20;;;;;;5074067;28;20037;-66
2023/09/06 08:37:46;;;;;;;7.22;3.60;;;28.40;81.20;;;;;;5073783;28;20116;-75
2023/09/06 08:40:12;;;;;;;6.30;3.40;;;28.80;81.60;;;;;;5061267;28;20557;-61
2023/09/06 08:42:38;;;;;;;6.53;3.75;;;28.40;80.80;;;;;;5071689;28;20135;-62
2023/09/06 08:45:07;;;;;;;5.35;3.35;;;28.50;81.00;;;;;;5054818;28;20052;-62
2023/09/06 08:47:33;;;;;;;6.55;3.13;;;28.30;79.30;;;;;;5068617;28;20045;-62
2023/09/06 08:49:59;;;;;;;4.80;3.05;;;28.60;80.50;;;;;;5074630;28;20550;-61
2023/09/06 08:52:28;;;;;;;5.90;3.00;;;28.40;80.20;;;;;;5055647;28;20060;-76
2023/09/06 08:54:54;;;;;;;5.03;2.63;;;28.30;80.60;;;;;;5070049;28;20060;-72
2023/09/06 08:57:21;;;;;;;7.70;3.10;;;28.30;79.80;;;;;;5071191;28;20041;-70
2023/09/06 08:59:49;;;;;;;5.72;3.10;;;28.30;79.80;;;;;;5055479;28;20049;-73
2023/09/06 09:02:16;;;;;;;5.78;2.80;;;27.80;79.80;;;;;;5055640;28;20077;-74
2023/09/06 09:04:42;;;;;;;5.93;2.50;;;28.40;80.30;;;;;;5055531;28;20045;-67
2023/09/06 09:07:12;;;;;;;4.20;2.58;;;29.70;81.40;;;;;;5054217;28;20037;-69
2023/09/06 09:10:09;;;;;;;4.47;2.65;;;28.80;79.90;;;;;;5055598;28;20505;-67
2023/09/06 09:12:38;;;;;;;5.28;2.70;;;28.50;78.00;;;;;;5053717;28;20146;-69
2023/09/06 09:15:05;;;;;;;5.43;3.10;;;28.20;78.60;;;;;;5054380;28;20052;-62
2023/09/06 09:17:31;;;;;;;5.32;2.50;;;28.50;79.00;;;;;;5057054;28;20048;-62
2023/09/06 09:19:58;;;;;;;4.13;2.33;;;28.00;78.80;;;;;;5074209;28;20040;-62
2023/09/06 09:22:24;;;;;;;5.18;2.47;;;28.20;78.90;;;;;;5074779;28;20040;-62
2023/09/06 09:24:50;;;;;;;4.55;2.70;;;28.60;79.00;;;;;;5057168;28;20131;-61
2023/09/06 09:27:18;;;;;;;6.38;2.80;;;28.30;78.70;;;;;;5074012;28;20119;-62
2023/09/06 09:29:44;;;;;;;7.28;2.50;;;28.30;78.90;;;;;;5071865;28;20044;-62
2023/09/06 09:32:13;;;;;;;4.95;2.70;;;28.50;79.00;;;;;;5067621;28;20052;-64
2023/09/06 09:34:41;;;;;;;4.70;2.85;;;28.30;79.00;;;;;;5037197;28;20055;-73
2023/09/06 09:37:10;;;;;;;4.70;2.80;;;28.30;79.20;;;;;;5037612;28;20044;-74
2023/09/06 09:39:37;;;;;;;8.55;2.80;;;28.40;78.50;;;;;;5022863;28;20429;-74
2023/09/06 09:42:04;;;;;;;5.15;2.47;;;28.40;78.70;;;;;;5073045;28;20390;-74
2023/09/06 09:44:30;;;;;;;7.13;2.65;;;28.40;78.60;;;;;;5068521;28;20052;-62
2023/09/06 09:46:57;;;;;;;5.47;2.60;;;28.40;78.30;;;;;;5020950;28;20048;-61
2023/09/06 09:49:22;;;;;;;5.32;2.90;;;28.60;78.10;;;;;;5036864;28;20084;-62
2023/09/06 09:51:50;;;;;;;4.03;2.80;;;28.60;78.00;;;;;;5020156;28;20107;-61
2023/09/06 09:54:16;;;;;;;6.47;2.65;;;28.50;78.00;;;;;;5038915;28;20449;-67
2023/09/06 09:56:47;;;;;;;5.18;2.55;;;28.80;78.50;;;;;;5068437;28;20036;-69
2023/09/06 09:59:13;;;;;;;5.43;2.70;;;29.60;79.10;;;;;;5070246;28;20123;-71
2023/09/06 10:01:39;;;;;;;7.80;2.90;;;28.70;78.60;;;;;;5052639;28;20140;-75
2023/09/06 10:04:05;;;;;;;6.63;2.65;;;28.50;78.40;;;;;;5054430;28;20045;-75
2023/09/06 10:06:32;;;;;;;8.07;2.88;;;28.50;79.30;;;;;;5053819;28;20041;-74
2023/09/06 10:09:08;;;;;;;8.25;2.80;;;28.70;78.70;;;;;;5062194;28;20041;-74
2023/09/06 10:11:35;;;;;;;7.47;2.97;;;29.80;79.30;;;;;;5072652;28;20055;-70
2023/09/06 10:14:03;;;;;;;5.32;2.88;;;29.00;78.50;;;;;;5073863;28;20052;-75
2023/09/06 10:16:38;;;;;;;5.75;2.80;;;28.80;78.50;;;;;;5068950;28;20045;-71
2023/09/06 10:19:08;;;;;;;7.15;2.75;;;27.80;76.50;;;;;;5053182;28;20044;-75
2023/09/06 10:21:39;;;;;;;5.13;2.90;;;28.90;77.30;;;;;;5072367;28;20121;-74
2023/09/06 10:24:19;;;;;;;3.72;2.53;;;29.10;77.50;;;;;;5056540;28;20052;-74
2023/09/06 10:26:47;;;;;;;5.13;2.47;;;28.70;77.20;;;;;;5054569;28;20093;-72
2023/09/06 10:29:18;;;;;;;8.13;2.53;;;30.20;80.90;;;;;;5059785;28;20095;-72
2023/09/06 10:31:48;;;;;;;5.30;2.55;;;29.50;79.70;;;;;;5072744;28;20052;-72
2023/09/06 10:34:14;;;;;;;5.55;2.67;;;29.20;79.00;;;;;;5064837;28;20041;-69
2023/09/06 10:37:00;;;;;;;4.47;2.50;;;29.00;79.30;;;;;;5053787;28;20371;-74
2023/09/06 10:39:29;;;;;;;4.75;2.70;;;29.40;79.10;;;;;;5054956;28;20405;-72
2023/09/06 10:42:11;;;;;;;4.40;2.53;;;28.90;78.60;;;;;;5067214;28;20040;-76
2023/09/06 10:44:55;;;;;;;4.22;2.53;;;29.00;78.70;;;;;;5071854;28;20040;-74
2023/09/06 10:47:28;;;;;;;7.72;2.78;;;29.20;79.00;;;;;;5071163;28;20052;-68
2023/09/06 10:50:16;;;;;;;5.72;2.70;;;28.50;76.90;;;;;;5057422;28;20056;-75
2023/09/06 10:52:43;;;;;;;3.60;2.40;;;29.00;77.40;;;;;;5053396;28;20058;-75
2023/09/06 10:55:20;;;;;;;5.68;2.90;;;29.20;78.40;;;;;;5051928;28;20053;-75
2023/09/06 10:57:56;;;;;;;5.70;3.08;;;29.10;78.90;;;;;;5052233;28;20076;-74
2023/09/06 11:00:27;;;;;;;7.03;2.88;;;29.20;77.40;;;;;;5057440;28;20040;-70
2023/09/06 11:03:08;;;;;;;5.55;3.00;;;29.40;77.30;;;;;;5071745;28;20041;-71
2023/09/06 11:05:42;;;;;;;5.37;2.80;;;29.10;78.50;;;;;;5070972;28;20405;-67
2023/09/06 11:08:08;;;;;;;5.82;2.90;;;28.90;78.30;;;;;;5057735;28;20077;-72
2023/09/06 11:10:35;;;;;;;5.88;2.88;;;29.40;78.70;;;;;;5052977;28;20509;-75
2023/09/06 11:13:10;;;;;;;6.85;2.85;;;29.20;78.40;;;;;;5051662;28;20052;-75
2023/09/06 11:15:36;;;;;;;6.85;2.95;;;29.20;78.00;;;;;;5052770;28;20060;-76
2023/09/06 11:18:05;;;;;;;5.75;3.00;;;29.20;77.80;;;;;;5057668;28;20174;-75
2023/09/06 11:20:32;;;;;;;4.90;2.40;;;29.50;77.50;;;;;;5065186;28;20578;-74
2023/09/06 11:22:58;;;;;;;8.45;2.97;;;29.90;77.80;;;;;;5053021;28;20053;-74
2023/09/06 11:25:26;;;;;;;5.10;2.70;;;29.60;77.70;;;;;;5062209;28;20036;-75
2023/09/06 11:27:55;;;;;;;5.97;2.45;;;30.20;77.50;;;;;;5057339;28;20116;-70
2023/09/06 11:30:22;;;;;;;4.28;2.60;;;30.10;77.10;;;;;;5054806;28;20044;-77
2023/09/06 11:32:49;;;;;;;5.80;2.42;;;29.30;76.80;;;;;;5065862;28;20052;-78
2023/09/06 11:35:16;;;;;;;4.75;2.90;;;29.20;76.80;;;;;;5068216;28;20040;-64
2023/09/06 11:37:46;;;;;;;4.35;2.80;;;29.30;75.60;;;;;;5071549;28;20557;-67
2023/09/06 11:40:16;;;;;;;3.80;2.35;;;29.60;76.40;;;;;;5070860;28;20520;-65
2023/09/06 11:42:43;;;;;;;7.18;2.58;;;29.60;76.50;;;;;;5056034;28;20501;-76
2023/09/06 11:45:09;;;;;;;6.07;2.47;;;29.60;76.20;;;;;;5066189;28;20063;-70
2023/09/06 11:47:37;;;;;;;8.38;2.40;;;29.50;75.90;;;;;;5065478;28;20044;-70
2023/09/06 11:50:06;;;;;;;4.10;2.33;;;29.60;76.00;;;;;;5052483;28;20067;-75
2023/09/06 11:52:32;;;;;;;4.60;2.50;;;29.80;75.80;;;;;;5064627;28;20097;-68
2023/09/06 11:55:05;;;;;;;6.30;2.40;;;29.80;75.90;;;;;;5065779;28;20211;-74
2023/09/06 11:57:31;;;;;;;5.07;2.50;;;29.80;76.50;;;;;;5052642;28;20391;-76
2023/09/06 11:59:57;;;;;;;4.88;2.55;;;29.70;75.70;;;;;;5052607;28;20439;-66
2023/09/06 12:02:34;;;;;;;3.67;2.13;;;29.70;75.90;;;;;;5050659;28;20463;-78
2023/09/06 12:05:03;;;;;;;3.45;2.20;;;30.00;76.50;;;;;;5051690;28;20422;-77
2023/09/06 12:07:30;;;;;;;6.05;2.40;;;29.70;75.80;;;;;;5068752;28;20048;-75
2023/09/06 12:10:00;;;;;;;4.20;2.15;;;29.80;76.20;;;;;;5032790;28;20049;-76
2023/09/06 12:12:26;;;;;;;4.07;2.53;;;29.70;76.40;;;;;;5054276;28;20068;-76
2023/09/06 12:14:52;;;;;;;5.45;2.50;;;30.40;76.40;;;;;;5052128;28;20103;-73
2023/09/06 12:17:19;;;;;;;3.88;2.35;;;29.40;75.60;;;;;;5054091;28;20052;-75
2023/09/06 12:19:45;;;;;;;9.65;2.90;;;29.90;76.50;;;;;;5038090;28;20098;-78
2023/09/06 12:22:17;;;;;;;5.38;2.55;;;27.90;74.30;;;;;;5061858;28;20084;-78
2023/09/06 12:24:47;;;;;;;4.45;2.38;;;29.90;75.60;;;;;;5068055;28;20401;-74
2023/09/06 12:27:18;;;;;;;5.00;2.30;;;30.00;75.80;;;;;;5038233;28;20398;-77
2023/09/06 12:29:44;;;;;;;4.57;2.35;;;29.90;75.20;;;;;;5054887;28;20040;-79
2023/09/06 12:32:10;;;;;;;4.50;2.20;;;29.80;76.00;;;;;;5070106;28;20098;-78
2023/09/06 12:34:36;;;;;;;3.63;2.13;;;30.10;76.90;;;;;;5055462;28;20040;-78
2023/09/06 12:37:02;;;;;;;3.50;2.15;;;30.00;75.90;;;;;;5034337;28;20045;-78
2023/09/06 12:39:28;;;;;;;6.70;2.50;;;30.00;76.30;;;;;;5055760;28;20049;-77
2023/09/06 12:41:55;;;;;;;5.32;2.38;;;28.10;75.80;;;;;;5050547;28;20045;-61
2023/09/06 12:44:21;;;;;;;7.93;2.63;;;30.10;75.60;;;;;;5050617;28;20045;-61
2023/09/06 12:46:47;;;;;;;4.97;2.45;;;29.80;75.10;;;;;;5051749;28;20048;-61
2023/09/06 12:49:13;;;;;;;3.95;2.20;;;29.80;75.30;;;;;;5051701;28;20494;-61
2023/09/06 12:51:39;;;;;;;4.18;2.40;;;30.00;75.50;;;;;;5061711;28;20052;-62
2023/09/06 12:54:06;;;;;;;4.10;2.40;;;30.10;75.30;;;;;;5070389;28;20049;-61